Time,TemperatureF,DewpointF,PressureIn,WindDirection,WindDirectionDegrees,WindSpeedMPH,WindSpeedGustMPH,Humidity,HourlyPrecipIn,Conditions,Clouds,dailyrainin,SolarRadiationWatts/m^2,SoftwareType,DateUTC
2013-03-13 00:00:00,27.0,23.0,29.89,WNW,296,0.0,7.0,85,0.00,,,0.02,0.0,meteohub,2013-03-13 04:00:00,
2013-03-13 00:05:00,27.0,23.4,29.88,WNW,297,2.0,5.0,86,0.00,,,0.02,0.0,meteohub,2013-03-13 04:05:00,
2013-03-13 00:10:00,27.0,23.4,29.89,WNW,296,0.0,6.0,86,0.00,,,0.00,0.0,meteohub,2013-03-13 04:10:00,
2013-03-13 00:15:00,26.8,23.2,29.89,WNW,300,6.0,6.0,86,0.00,,,0.00,0.0,meteohub,2013-03-13 04:15:00,
2013-03-13 00:20:00,26.8,23.2,29.89,WNW,303,2.0,8.0,86,0.00,,,0.00,0.0,meteohub,2013-03-13 04:20:00,
2013-03-13 00:25:00,26.8,23.2,29.89,WNW,302,0.0,8.0,86,0.00,,,0.00,0.0,meteohub,2013-03-13 04:25:00,
2013-03-13 00:31:00,26.8,23.2,29.89,NNW,329,5.0,8.0,86,0.00,,,0.00,0.0,meteohub,2013-03-13 04:31:00,
2013-03-13 00:36:00,26.6,23.0,29.89,WNW,297,2.0,8.0,86,0.00,,,0.00,0.0,meteohub,2013-03-13 04:36:00,
2013-03-13 00:41:00,26.4,22.8,29.89,WNW,289,4.0,12.0,86,0.00,,,0.00,0.0,meteohub,2013-03-13 04:41:00,
2013-03-13 00:46:00,26.2,22.3,29.89,WNW,298,2.0,12.0,85,0.00,,,0.00,0.0,meteohub,2013-03-13 04:46:00,
2013-03-13 00:51:00,26.2,22.3,29.89,WNW,297,5.0,12.0,85,0.00,,,0.00,0.0,meteohub,2013-03-13 04:51:00,
2013-03-13 00:56:00,26.1,22.1,29.88,West,277,4.0,12.0,85,0.00,,,0.00,0.0,meteohub,2013-03-13 04:56:00,
2013-03-13 01:01:00,26.1,22.1,29.89,West,276,1.0,5.0,85,0.00,,,0.00,0.0,meteohub,2013-03-13 05:01:00,
2013-03-13 01:06:00,26.1,22.1,29.88,West,276,0.0,5.0,85,0.00,,,0.00,0.0,meteohub,2013-03-13 05:06:00,
2013-03-13 01:11:00,25.9,21.9,29.89,West,277,0.0,6.0,85,0.00,,,0.00,0.0,meteohub,2013-03-13 05:11:00,
2013-03-13 01:16:00,25.9,21.9,29.89,West,275,4.0,6.0,85,0.00,,,0.00,0.0,meteohub,2013-03-13 05:16:00,
2013-03-13 01:22:00,25.9,21.9,29.89,West,274,0.0,6.0,85,0.00,,,0.00,0.0,meteohub,2013-03-13 05:22:00,
2013-03-13 01:27:00,25.7,21.7,29.89,West,274,2.0,6.0,85,0.00,,,0.00,0.0,meteohub,2013-03-13 05:27:00,
2013-03-13 01:32:00,25.7,21.7,29.88,West,274,0.0,5.0,85,0.00,,,0.00,0.0,meteohub,2013-03-13 05:32:00,
2013-03-13 01:37:00,25.7,21.7,29.88,West,273,0.0,5.0,85,0.00,,,0.00,0.0,meteohub,2013-03-13 05:37:00,
2013-03-13 01:42:00,25.7,22.1,29.88,West,275,0.0,4.0,86,0.00,,,0.00,0.0,meteohub,2013-03-13 05:42:00,
2013-03-13 01:47:00,25.7,22.1,29.88,West,275,1.0,4.0,86,0.00,,,0.00,0.0,meteohub,2013-03-13 05:47:00,
2013-03-13 01:52:00,25.7,22.1,29.88,West,275,0.0,4.0,86,0.00,,,0.00,0.0,meteohub,2013-03-13 05:52:00,
2013-03-13 01:57:00,25.7,22.1,29.88,West,275,0.0,4.0,86,0.00,,,0.00,0.0,meteohub,2013-03-13 05:57:00,
2013-03-13 02:02:00,25.7,22.1,29.88,WNW,295,6.0,6.0,86,0.00,,,0.00,0.0,meteohub,2013-03-13 06:02:00,
2013-03-13 02:07:00,25.7,22.5,29.88,WNW,289,0.0,6.0,87,0.00,,,0.00,0.0,meteohub,2013-03-13 06:07:00,
2013-03-13 02:12:00,25.9,22.5,29.88,West,279,0.0,7.0,87,0.00,,,0.00,0.0,meteohub,2013-03-13 06:12:00,
2013-03-13 02:17:00,25.9,22.5,29.88,West,279,0.0,7.0,87,0.00,,,0.00,0.0,meteohub,2013-03-13 06:17:00,
2013-03-13 02:22:00,25.9,22.5,29.88,West,279,2.0,6.0,87,0.00,,,0.00,0.0,meteohub,2013-03-13 06:22:00,
2013-03-13 02:27:00,25.9,22.5,29.89,WNW,282,0.0,6.0,87,0.00,,,0.00,0.0,meteohub,2013-03-13 06:27:00,
2013-03-13 02:32:00,25.9,22.5,29.89,WNW,288,2.0,7.0,87,0.00,,,0.00,0.0,meteohub,2013-03-13 06:32:00,
2013-03-13 02:37:00,26.1,23.0,29.89,West,277,1.0,7.0,88,0.00,,,0.00,0.0,meteohub,2013-03-13 06:37:00,
2013-03-13 02:42:00,25.9,22.8,29.89,NW,317,1.0,6.0,88,0.00,,,0.00,0.0,meteohub,2013-03-13 06:42:00,
2013-03-13 02:47:00,25.5,22.5,29.89,NW,307,1.0,6.0,88,0.00,,,0.00,0.0,meteohub,2013-03-13 06:47:00,
2013-03-13 02:52:00,25.2,22.1,29.90,NW,323,1.0,14.0,88,0.00,,,0.00,0.0,meteohub,2013-03-13 06:52:00,
2013-03-13 02:57:00,24.6,21.6,29.91,NW,323,5.0,14.0,88,0.00,,,0.00,0.0,meteohub,2013-03-13 06:57:00,
2013-03-13 03:02:00,24.3,21.2,29.90,NW,325,1.0,11.0,88,0.00,,,0.00,0.0,meteohub,2013-03-13 07:02:00,
2013-03-13 03:07:00,24.1,20.8,29.90,NNW,329,4.0,11.0,87,0.00,,,0.00,0.0,meteohub,2013-03-13 07:07:00,
2013-03-13 03:13:00,23.9,20.7,29.90,WNW,301,2.0,11.0,87,0.00,,,0.00,0.0,meteohub,2013-03-13 07:13:00,
2013-03-13 03:18:00,23.7,20.1,29.90,NW,312,0.0,9.0,86,0.00,,,0.00,0.0,meteohub,2013-03-13 07:18:00,
2013-03-13 03:23:00,23.5,19.9,29.90,NW,321,2.0,9.0,86,0.00,,,0.00,0.0,meteohub,2013-03-13 07:23:00,
2013-03-13 03:28:00,23.4,19.6,29.91,NNW,338,7.0,9.0,85,0.00,,,0.00,0.0,meteohub,2013-03-13 07:28:00,
2013-03-13 03:34:00,23.4,19.2,29.91,WNW,298,0.0,13.0,84,0.00,,,0.00,0.0,meteohub,2013-03-13 07:34:00,
2013-03-13 03:39:00,23.2,19.0,29.91,NW,311,4.0,11.0,84,0.00,,,0.00,0.0,meteohub,2013-03-13 07:39:00,
2013-03-13 03:44:00,23.2,19.0,29.91,NW,317,0.0,11.0,84,0.00,,,0.00,0.0,meteohub,2013-03-13 07:44:00,
2013-03-13 03:49:00,23.0,18.9,29.91,WNW,294,0.0,11.0,84,0.00,,,0.00,0.0,meteohub,2013-03-13 07:49:00,
2013-03-13 03:54:00,23.0,18.9,29.91,NW,320,0.0,7.0,84,0.00,,,0.00,0.0,meteohub,2013-03-13 07:54:00,
2013-03-13 03:59:00,23.0,18.9,29.91,NW,317,2.0,7.0,84,0.00,,,0.00,0.0,meteohub,2013-03-13 07:59:00,
2013-03-13 04:04:00,23.0,18.9,29.91,NNW,343,5.0,9.0,84,0.00,,,0.00,0.0,meteohub,2013-03-13 08:04:00,
2013-03-13 04:09:00,23.0,18.9,29.92,NW,321,0.0,9.0,84,0.00,,,0.00,0.0,meteohub,2013-03-13 08:09:00,
2013-03-13 04:14:00,23.0,18.9,29.91,NW,320,4.0,9.0,84,0.00,,,0.00,0.0,meteohub,2013-03-13 08:14:00,
2013-03-13 04:19:00,23.0,18.7,29.91,West,269,2.0,11.0,83,0.00,,,0.00,0.0,meteohub,2013-03-13 08:19:00,
2013-03-13 04:24:00,22.8,18.5,29.92,WNW,282,2.0,11.0,83,0.00,,,0.00,0.0,meteohub,2013-03-13 08:24:00,
2013-03-13 04:29:00,22.8,18.0,29.92,NW,318,4.0,11.0,81,0.00,,,0.00,0.0,meteohub,2013-03-13 08:29:00,
2013-03-13 04:34:00,22.6,17.4,29.92,NW,307,8.0,20.0,80,0.00,,,0.00,0.0,meteohub,2013-03-13 08:34:00,
2013-03-13 04:39:00,22.5,16.9,29.92,West,262,5.0,20.0,79,0.00,,,0.00,0.0,meteohub,2013-03-13 08:39:00,
2013-03-13 04:44:00,22.5,16.9,29.92,NW,310,7.0,20.0,79,0.00,,,0.00,0.0,meteohub,2013-03-13 08:44:00,
2013-03-13 04:49:00,22.3,16.7,29.92,NW,318,4.0,20.0,79,0.00,,,0.00,0.0,meteohub,2013-03-13 08:49:00,
2013-03-13 04:54:00,22.3,16.7,29.92,WNW,294,4.0,12.0,79,0.00,,,0.00,0.0,meteohub,2013-03-13 08:54:00,
2013-03-13 04:59:00,21.9,16.3,29.92,NNW,340,10.0,11.0,79,0.00,,,0.00,0.0,meteohub,2013-03-13 08:59:00,
2013-03-13 05:04:00,21.9,16.3,29.93,WNW,303,5.0,11.0,79,0.00,,,0.00,0.0,meteohub,2013-03-13 09:04:00,
2013-03-13 05:09:00,21.7,16.2,29.92,WNW,303,5.0,11.0,79,0.00,,,0.00,0.0,meteohub,2013-03-13 09:09:00,
2013-03-13 05:14:00,21.7,16.2,29.93,NW,307,4.0,11.0,79,0.00,,,0.00,0.0,meteohub,2013-03-13 09:14:00,
2013-03-13 05:19:00,21.7,16.2,29.92,WNW,298,0.0,10.0,79,0.00,,,0.00,0.0,meteohub,2013-03-13 09:19:00,
2013-03-13 05:24:00,21.7,16.5,29.93,WNW,301,5.0,10.0,80,0.00,,,0.00,0.0,meteohub,2013-03-13 09:24:00,
2013-03-13 05:29:00,21.6,16.3,29.93,NW,311,0.0,9.0,80,0.00,,,0.00,0.0,meteohub,2013-03-13 09:29:00,
2013-03-13 05:35:00,21.6,16.3,29.94,West,277,2.0,9.0,80,0.00,,,0.00,0.0,meteohub,2013-03-13 09:35:00,
2013-03-13 05:40:00,21.6,16.3,29.94,WNW,289,5.0,7.0,80,0.00,,,0.00,0.0,meteohub,2013-03-13 09:40:00,
2013-03-13 05:45:00,21.6,16.3,29.94,WNW,287,2.0,7.0,80,0.00,,,0.00,0.0,meteohub,2013-03-13 09:45:00,
2013-03-13 05:50:00,21.6,16.3,29.94,WNW,286,2.0,9.0,80,0.00,,,0.00,0.0,meteohub,2013-03-13 09:50:00,
2013-03-13 05:55:00,21.4,16.2,29.94,WNW,298,2.0,9.0,80,0.00,,,0.00,0.0,meteohub,2013-03-13 09:55:00,
2013-03-13 06:00:00,21.4,16.2,29.94,WNW,286,4.0,16.0,80,0.00,,,0.00,0.0,meteohub,2013-03-13 10:00:00,
2013-03-13 06:05:00,21.2,16.0,29.94,WNW,296,2.0,16.0,80,0.00,,,0.00,0.0,meteohub,2013-03-13 10:05:00,
2013-03-13 06:10:00,21.0,15.8,29.95,NW,304,2.0,13.0,80,0.00,,,0.00,0.0,meteohub,2013-03-13 10:10:00,
2013-03-13 06:15:00,21.0,15.8,29.95,WNW,284,4.0,13.0,80,0.00,,,0.00,0.0,meteohub,2013-03-13 10:15:00,
2013-03-13 06:20:00,21.0,15.8,29.95,WNW,292,4.0,9.0,80,0.00,,,0.00,0.0,meteohub,2013-03-13 10:20:00,
2013-03-13 06:25:00,20.8,16.0,29.95,WNW,296,4.0,9.0,81,0.00,,,0.00,0.0,meteohub,2013-03-13 10:25:00,
2013-03-13 06:30:00,20.8,16.0,29.96,NW,304,4.0,9.0,81,0.00,,,0.00,0.0,meteohub,2013-03-13 10:30:00,
2013-03-13 06:35:00,20.8,16.0,29.96,WNW,291,4.0,11.0,81,0.00,,,0.00,0.0,meteohub,2013-03-13 10:35:00,
2013-03-13 06:40:00,20.8,16.2,29.96,WNW,295,6.0,11.0,82,0.00,,,0.00,0.0,meteohub,2013-03-13 10:40:00,
2013-03-13 06:45:00,20.8,16.2,29.96,WNW,300,6.0,11.0,82,0.00,,,0.00,0.0,meteohub,2013-03-13 10:45:00,
2013-03-13 06:50:00,20.8,16.2,29.96,WNW,300,1.0,9.0,82,0.00,,,0.00,0.0,meteohub,2013-03-13 10:50:00,
2013-03-13 06:55:00,20.8,16.5,29.96,WNW,293,5.0,9.0,83,0.00,,,0.00,0.0,meteohub,2013-03-13 10:55:00,
2013-03-13 07:00:00,20.8,16.5,29.96,West,281,1.0,7.0,83,0.00,,,0.00,0.0,meteohub,2013-03-13 11:00:00,
2013-03-13 07:05:00,20.8,16.5,29.96,WNW,292,1.0,7.0,83,0.00,,,0.00,0.0,meteohub,2013-03-13 11:05:00,
2013-03-13 07:10:00,20.8,16.7,29.97,WNW,284,5.0,14.0,84,0.00,,,0.00,0.0,meteohub,2013-03-13 11:10:00,
2013-03-13 07:15:00,20.8,16.7,29.97,WNW,287,0.0,14.0,84,0.00,,,0.00,0.0,meteohub,2013-03-13 11:15:00,
2013-03-13 07:20:00,20.8,18.9,29.97,WNW,285,0.0,8.0,92,0.00,,,0.00,0.0,meteohub,2013-03-13 11:20:00,
2013-03-13 07:25:00,20.8,17.1,29.97,West,281,4.0,8.0,85,0.00,,,0.00,0.0,meteohub,2013-03-13 11:25:00,
2013-03-13 07:30:00,20.8,17.1,29.97,WSW,252,1.0,8.0,85,0.00,,,0.00,0.0,meteohub,2013-03-13 11:30:00,
2013-03-13 07:35:00,20.8,17.2,29.98,West,271,5.0,8.0,86,0.00,,,0.00,0.0,meteohub,2013-03-13 11:35:00,
2013-03-13 07:40:00,21.0,17.4,29.98,West,271,2.0,6.0,86,0.00,,,0.00,0.0,meteohub,2013-03-13 11:40:00,
2013-03-13 07:45:00,21.4,17.8,29.97,WNW,287,2.0,6.0,86,0.00,,,0.00,0.0,meteohub,2013-03-13 11:45:00,
2013-03-13 07:50:00,21.4,18.1,29.97,WNW,299,0.0,11.0,87,0.00,,,0.00,0.0,meteohub,2013-03-13 11:50:00,
2013-03-13 07:55:00,21.6,18.3,29.98,WNW,296,2.0,11.0,87,0.00,,,0.00,0.0,meteohub,2013-03-13 11:55:00,
2013-03-13 08:00:00,21.6,18.3,29.98,West,275,4.0,11.0,87,0.00,,,0.00,0.0,meteohub,2013-03-13 12:00:00,
2013-03-13 08:05:00,21.7,18.5,29.98,NW,321,2.0,11.0,87,0.00,,,0.00,0.0,meteohub,2013-03-13 12:05:00,
2013-03-13 08:10:00,21.7,18.5,29.98,WNW,288,4.0,14.0,87,0.00,,,0.00,5.0,meteohub,2013-03-13 12:10:00,
2013-03-13 08:15:00,21.9,18.9,29.98,WNW,291,2.0,14.0,88,0.00,,,0.00,7.0,meteohub,2013-03-13 12:15:00,
2013-03-13 08:20:00,21.9,18.9,29.99,WNW,291,2.0,13.0,88,0.00,,,0.00,12.0,meteohub,2013-03-13 12:20:00,
2013-03-13 08:25:00,22.1,19.0,29.99,WNW,295,5.0,13.0,88,0.00,,,0.00,18.0,meteohub,2013-03-13 12:25:00,
2013-03-13 08:30:00,22.1,19.0,29.99,WNW,299,6.0,16.0,88,0.00,,,0.00,19.0,meteohub,2013-03-13 12:30:00,
2013-03-13 08:35:00,22.3,19.2,29.99,WNW,288,4.0,16.0,88,0.00,,,0.00,23.0,meteohub,2013-03-13 12:35:00,
2013-03-13 08:40:00,22.3,19.2,29.99,WNW,290,4.0,15.0,88,0.00,,,0.00,30.0,meteohub,2013-03-13 12:40:00,
2013-03-13 08:45:00,22.3,19.2,29.99,WNW,283,2.0,15.0,88,0.00,,,0.00,35.0,meteohub,2013-03-13 12:45:00,
2013-03-13 08:50:00,22.3,19.2,29.99,WNW,298,2.0,15.0,88,0.00,,,0.00,39.0,meteohub,2013-03-13 12:50:00,
2013-03-13 08:55:00,22.5,19.4,29.99,NW,309,5.0,15.0,88,0.00,,,0.00,58.0,meteohub,2013-03-13 12:55:00,
2013-03-13 09:00:00,22.5,19.4,30.00,WNW,291,4.0,13.0,88,0.00,,,0.00,102.0,meteohub,2013-03-13 13:00:00,
2013-03-13 09:05:00,22.8,19.6,30.00,NW,311,5.0,13.0,87,0.00,,,0.00,67.0,meteohub,2013-03-13 13:05:00,
2013-03-13 09:10:00,23.2,19.9,30.00,WNW,290,6.0,14.0,87,0.00,,,0.00,72.0,meteohub,2013-03-13 13:10:00,
2013-03-13 09:15:00,23.2,19.6,30.01,WNW,299,2.0,14.0,86,0.00,,,0.00,70.0,meteohub,2013-03-13 13:15:00,
2013-03-13 09:20:00,23.4,19.6,30.01,WNW,299,4.0,16.0,85,0.00,,,0.00,44.0,meteohub,2013-03-13 13:20:00,
2013-03-13 09:25:00,23.4,19.6,30.01,WNW,294,5.0,16.0,85,0.00,,,0.00,33.0,meteohub,2013-03-13 13:25:00,
2013-03-13 09:30:00,23.2,19.0,30.01,NW,313,12.0,19.0,84,0.00,,,0.00,35.0,meteohub,2013-03-13 13:30:00,
2013-03-13 09:35:00,23.4,19.2,30.01,WNW,295,5.0,19.0,84,0.00,,,0.00,84.0,meteohub,2013-03-13 13:35:00,
2013-03-13 09:40:00,23.5,19.4,30.01,West,277,5.0,19.0,84,0.00,,,0.00,98.0,meteohub,2013-03-13 13:40:00,
2013-03-13 09:47:00,23.7,19.4,30.02,NW,324,8.0,16.0,83,0.00,,,0.00,88.0,meteohub,2013-03-13 13:47:00,
2013-03-13 09:52:00,23.7,19.4,30.02,WNW,286,13.0,16.0,83,0.00,,,0.00,123.0,meteohub,2013-03-13 13:52:00,
2013-03-13 09:57:00,23.9,19.2,30.02,NW,306,4.0,16.0,82,0.00,,,0.00,118.0,meteohub,2013-03-13 13:57:00,
2013-03-13 10:02:00,24.1,19.4,30.02,WNW,298,5.0,20.0,82,0.00,,,0.00,142.0,meteohub,2013-03-13 14:02:00,
2013-03-13 10:07:00,24.3,19.6,30.02,WNW,290,7.0,20.0,82,0.00,,,0.00,97.0,meteohub,2013-03-13 14:07:00,
2013-03-13 10:12:00,24.3,19.6,30.03,WNW,302,4.0,19.0,82,0.00,,,0.00,116.0,meteohub,2013-03-13 14:12:00,
2013-03-13 10:17:00,24.3,19.6,30.03,WSW,254,8.0,19.0,82,0.00,,,0.00,118.0,meteohub,2013-03-13 14:17:00,
2013-03-13 10:22:00,24.3,19.2,30.03,NW,320,12.0,18.0,81,0.00,,,0.00,137.0,meteohub,2013-03-13 14:22:00,
2013-03-13 10:27:00,24.6,19.6,30.03,NW,314,5.0,21.0,81,0.00,,,0.00,548.0,meteohub,2013-03-13 14:27:00,
2013-03-13 10:32:00,25.3,19.8,30.04,West,261,15.0,21.0,79,0.00,,,0.00,202.0,meteohub,2013-03-13 14:32:00,
2013-03-13 10:37:00,25.2,19.0,30.04,NNW,331,10.0,22.0,77,0.00,,,0.00,160.0,meteohub,2013-03-13 14:37:00,
2013-03-13 10:42:00,25.2,19.0,30.04,NW,314,8.0,22.0,77,0.00,,,0.00,199.0,meteohub,2013-03-13 14:42:00,
2013-03-13 10:47:00,25.2,19.0,30.04,NW,326,14.0,22.0,77,0.00,,,0.00,183.0,meteohub,2013-03-13 14:47:00,
2013-03-13 10:52:00,25.3,19.4,30.05,WNW,294,1.0,21.0,78,0.00,,,0.00,144.0,meteohub,2013-03-13 14:52:00,
2013-03-13 10:57:00,25.5,19.4,30.05,WNW,295,18.0,21.0,77,0.00,,,0.00,202.0,meteohub,2013-03-13 14:57:00,
2013-03-13 11:02:00,25.3,19.4,30.05,West,275,6.0,21.0,78,0.00,,,0.00,174.0,meteohub,2013-03-13 15:02:00,
2013-03-13 11:07:00,25.3,19.4,30.05,WNW,284,4.0,21.0,78,0.00,,,0.00,176.0,meteohub,2013-03-13 15:07:00,
2013-03-13 11:12:00,25.3,19.2,30.06,WNW,298,6.0,18.0,77,0.00,,,0.00,190.0,meteohub,2013-03-13 15:12:00,
2013-03-13 11:17:00,25.5,19.4,30.06,NW,306,2.0,18.0,77,0.00,,,0.00,216.0,meteohub,2013-03-13 15:17:00,
2013-03-13 11:22:00,25.5,18.3,30.06,West,279,0.0,18.0,74,0.00,,,0.00,216.0,meteohub,2013-03-13 15:22:00,
2013-03-13 11:27:00,26.2,19.4,30.06,NW,305,8.0,18.0,75,0.00,,,0.00,325.0,meteohub,2013-03-13 15:27:00,
2013-03-13 11:32:00,26.4,18.9,30.06,WNW,288,5.0,18.0,73,0.00,,,0.00,202.0,meteohub,2013-03-13 15:32:00,
2013-03-13 11:37:00,26.4,19.2,30.06,WNW,287,5.0,18.0,74,0.00,,,0.00,195.0,meteohub,2013-03-13 15:37:00,
2013-03-13 11:43:00,26.2,18.9,30.06,West,280,6.0,22.0,73,0.00,,,0.00,299.0,meteohub,2013-03-13 15:43:00,
2013-03-13 11:48:00,26.2,18.5,30.06,WNW,288,7.0,22.0,72,0.00,,,0.00,250.0,meteohub,2013-03-13 15:48:00,
2013-03-13 11:53:00,26.4,18.7,30.06,WNW,284,8.0,16.0,72,0.00,,,0.00,348.0,meteohub,2013-03-13 15:53:00,
2013-03-13 11:58:00,26.6,19.0,30.06,WNW,302,5.0,20.0,73,0.00,,,0.00,250.0,meteohub,2013-03-13 15:58:00,
2013-03-13 12:03:00,26.4,18.9,30.06,WNW,294,15.0,20.0,73,0.00,,,0.00,183.0,meteohub,2013-03-13 16:03:00,
2013-03-13 12:08:00,26.2,19.4,30.07,NW,315,2.0,20.0,75,0.00,,,0.00,255.0,meteohub,2013-03-13 16:08:00,
2013-03-13 12:13:00,26.4,19.9,30.07,NW,321,1.0,22.0,76,0.00,,,0.00,179.0,meteohub,2013-03-13 16:13:00,
2013-03-13 12:18:00,26.2,19.4,30.08,NW,313,5.0,20.0,75,0.00,,,0.00,221.0,meteohub,2013-03-13 16:18:00,
2013-03-13 12:23:00,26.8,19.2,30.08,WNW,291,6.0,18.0,73,0.00,,,0.00,754.0,meteohub,2013-03-13 16:23:00,
2013-03-13 12:29:00,27.7,19.2,30.07,WNW,303,8.0,18.0,70,0.00,,,0.00,705.0,meteohub,2013-03-13 16:29:00,
2013-03-13 12:34:00,27.7,18.9,30.08,NW,304,6.0,19.0,69,0.00,,,0.00,234.0,meteohub,2013-03-13 16:34:00,
2013-03-13 12:39:00,26.4,19.6,30.08,WNW,298,4.0,23.0,75,0.00,,,0.00,316.0,meteohub,2013-03-13 16:39:00,
2013-03-13 12:44:00,26.1,20.1,30.08,NNW,340,11.0,23.0,78,0.00,,,0.00,243.0,meteohub,2013-03-13 16:44:00,
2013-03-13 12:49:00,26.1,19.2,30.08,NW,319,6.0,23.0,75,0.00,,,0.00,236.0,meteohub,2013-03-13 16:49:00,
2013-03-13 12:54:00,26.4,18.9,30.09,NW,310,18.0,21.0,73,0.00,,,0.00,269.0,meteohub,2013-03-13 16:54:00,
2013-03-13 12:59:00,26.8,18.7,30.09,NNW,347,13.0,18.0,71,0.00,,,0.00,336.0,meteohub,2013-03-13 16:59:00,
2013-03-13 13:04:00,27.1,18.3,30.09,NW,317,1.0,19.0,69,0.00,,,0.00,357.0,meteohub,2013-03-13 17:04:00,
2013-03-13 13:09:00,28.0,19.2,30.09,WNW,293,5.0,19.0,69,0.00,,,0.00,287.0,meteohub,2013-03-13 17:09:00,
2013-03-13 13:14:00,28.2,19.0,30.09,NW,306,6.0,19.0,68,0.00,,,0.00,297.0,meteohub,2013-03-13 17:14:00,
2013-03-13 13:19:00,28.2,18.3,30.09,NW,309,7.0,18.0,66,0.00,,,0.00,316.0,meteohub,2013-03-13 17:19:00,
2013-03-13 13:24:00,28.9,19.0,30.09,NW,321,2.0,21.0,66,0.00,,,0.00,392.0,meteohub,2013-03-13 17:24:00,
2013-03-13 13:29:00,28.6,17.6,30.09,NW,306,6.0,21.0,63,0.00,,,0.00,308.0,meteohub,2013-03-13 17:29:00,
2013-03-13 13:34:00,28.8,18.9,30.09,NNW,348,2.0,21.0,66,0.00,,,0.00,336.0,meteohub,2013-03-13 17:34:00,
2013-03-13 13:39:00,28.6,18.0,30.09,WNW,289,6.0,18.0,64,0.00,,,0.00,294.0,meteohub,2013-03-13 17:39:00,
2013-03-13 13:44:00,28.0,17.4,30.09,NNW,329,14.0,18.0,64,0.00,,,0.00,320.0,meteohub,2013-03-13 17:44:00,
2013-03-13 13:49:00,27.9,17.6,30.10,WNW,292,4.0,18.0,65,0.00,,,0.00,330.0,meteohub,2013-03-13 17:49:00,
2013-03-13 13:54:00,28.0,18.5,30.10,NW,318,7.0,21.0,67,0.00,,,0.00,265.0,meteohub,2013-03-13 17:54:00,
2013-03-13 13:59:00,27.9,18.3,30.10,NW,321,7.0,21.0,67,0.00,,,0.00,179.0,meteohub,2013-03-13 17:59:00,
2013-03-13 14:04:00,28.0,18.5,30.11,West,265,12.0,19.0,67,0.00,,,0.00,837.0,meteohub,2013-03-13 18:04:00,
2013-03-13 14:09:00,28.9,19.0,30.11,WNW,301,8.0,19.0,66,0.00,,,0.00,336.0,meteohub,2013-03-13 18:09:00,
2013-03-13 14:14:00,28.8,18.9,30.11,WSW,253,4.0,19.0,66,0.00,,,0.00,271.0,meteohub,2013-03-13 18:14:00,
2013-03-13 14:19:00,28.6,18.7,30.12,West,261,5.0,19.0,66,0.00,,,0.00,406.0,meteohub,2013-03-13 18:19:00,
2013-03-13 14:24:00,28.8,18.1,30.12,WNW,290,5.0,18.0,64,0.00,,,0.00,272.0,meteohub,2013-03-13 18:24:00,
2013-03-13 14:29:00,29.3,19.0,30.12,West,264,6.0,18.0,65,0.00,,,0.00,380.0,meteohub,2013-03-13 18:29:00,
2013-03-13 14:34:00,29.3,18.7,30.12,WNW,290,7.0,18.0,64,0.00,,,0.00,288.0,meteohub,2013-03-13 18:34:00,
2013-03-13 14:39:00,28.9,17.6,30.12,WNW,297,12.0,18.0,62,0.00,,,0.00,359.0,meteohub,2013-03-13 18:39:00,
2013-03-13 14:44:00,29.3,18.0,30.12,West,279,11.0,19.0,62,0.00,,,0.00,457.0,meteohub,2013-03-13 18:44:00,
2013-03-13 14:49:00,30.0,18.5,30.12,NW,315,4.0,20.0,62,0.00,,,0.00,874.0,meteohub,2013-03-13 18:49:00,
2013-03-13 14:54:00,29.7,17.1,30.12,WNW,282,5.0,20.0,59,0.00,,,0.00,292.0,meteohub,2013-03-13 18:54:00,
2013-03-13 14:59:00,29.1,17.4,30.12,WNW,302,0.0,22.0,61,0.00,,,0.00,346.0,meteohub,2013-03-13 18:59:00,
2013-03-13 15:04:00,30.6,18.0,30.12,NNW,341,13.0,22.0,59,0.00,,,0.00,830.0,meteohub,2013-03-13 19:04:00,
2013-03-13 15:09:00,30.6,17.6,30.12,NW,318,1.0,22.0,58,0.00,,,0.00,250.0,meteohub,2013-03-13 19:09:00,
2013-03-13 15:14:00,30.0,16.2,30.12,NNW,330,8.0,19.0,56,0.00,,,0.00,216.0,meteohub,2013-03-13 19:14:00,
2013-03-13 15:19:00,29.7,17.1,30.12,NW,317,1.0,19.0,59,0.00,,,0.00,216.0,meteohub,2013-03-13 19:19:00,
2013-03-13 15:24:00,30.0,18.1,30.12,WNW,298,5.0,21.0,61,0.00,,,0.00,921.0,meteohub,2013-03-13 19:24:00,
2013-03-13 15:30:00,30.9,18.3,30.12,West,281,14.0,21.0,59,0.00,,,0.00,791.0,meteohub,2013-03-13 19:30:00,
2013-03-13 15:35:00,30.4,17.1,30.13,WNW,302,8.0,21.0,57,0.00,,,0.00,784.0,meteohub,2013-03-13 19:35:00,
2013-03-13 15:40:00,29.5,16.9,30.13,WNW,299,8.0,21.0,59,0.00,,,0.00,162.0,meteohub,2013-03-13 19:40:00,
2013-03-13 15:45:00,29.7,17.8,30.13,NNW,336,10.0,21.0,61,0.00,,,0.00,782.0,meteohub,2013-03-13 19:45:00,
2013-03-13 15:50:00,30.6,17.1,30.13,NW,317,6.0,20.0,57,0.00,,,0.00,267.0,meteohub,2013-03-13 19:50:00,
2013-03-13 15:55:00,31.5,19.6,30.13,SE,144,2.0,20.0,61,0.00,,,0.00,745.0,meteohub,2013-03-13 19:55:00,
2013-03-13 16:00:00,32.4,18.0,30.13,NW,319,11.0,19.0,55,0.00,,,0.00,742.0,meteohub,2013-03-13 20:00:00,
2013-03-13 16:05:00,32.4,19.2,30.13,NNW,346,13.0,20.0,58,0.00,,,0.00,656.0,meteohub,2013-03-13 20:05:00,
2013-03-13 16:10:00,31.5,18.9,30.14,NW,317,7.0,20.0,59,0.00,,,0.00,643.0,meteohub,2013-03-13 20:10:00,
2013-03-13 16:15:00,31.3,17.8,30.14,NNW,339,11.0,20.0,57,0.00,,,0.00,548.0,meteohub,2013-03-13 20:15:00,
2013-03-13 16:20:00,30.9,17.1,30.14,WNW,294,8.0,19.0,56,0.00,,,0.00,598.0,meteohub,2013-03-13 20:20:00,
2013-03-13 16:25:00,31.8,18.3,30.14,NW,312,11.0,19.0,57,0.00,,,0.00,571.0,meteohub,2013-03-13 20:25:00,
2013-03-13 16:30:00,31.1,17.6,30.14,NW,311,1.0,16.0,57,0.00,,,0.00,489.0,meteohub,2013-03-13 20:30:00,
2013-03-13 16:35:00,31.5,18.0,30.14,NW,318,2.0,16.0,57,0.00,,,0.00,568.0,meteohub,2013-03-13 20:35:00,
2013-03-13 16:40:00,31.3,18.7,30.15,NW,321,6.0,23.0,59,0.00,,,0.00,589.0,meteohub,2013-03-13 20:40:00,
2013-03-13 16:45:00,30.6,16.7,30.15,NW,318,8.0,23.0,56,0.00,,,0.00,519.0,meteohub,2013-03-13 20:45:00,
2013-03-13 16:50:00,31.1,17.2,30.16,NW,309,4.0,17.0,56,0.00,,,0.00,575.0,meteohub,2013-03-13 20:50:00,
2013-03-13 16:55:00,30.7,16.9,30.15,NW,306,13.0,17.0,56,0.00,,,0.00,492.0,meteohub,2013-03-13 20:55:00,
2013-03-13 17:00:00,30.7,17.2,30.16,NNW,342,1.0,21.0,57,0.00,,,0.00,526.0,meteohub,2013-03-13 21:00:00,
2013-03-13 17:05:00,31.3,16.5,30.16,WNW,298,6.0,21.0,54,0.00,,,0.00,497.0,meteohub,2013-03-13 21:05:00,
2013-03-13 17:10:00,31.3,17.1,30.17,WNW,282,7.0,21.0,55,0.00,,,0.00,476.0,meteohub,2013-03-13 21:10:00,
2013-03-13 17:15:00,31.1,17.2,30.17,NW,310,11.0,18.0,56,0.00,,,0.00,490.0,meteohub,2013-03-13 21:15:00,
2013-03-13 17:20:00,31.6,17.8,30.17,NW,325,2.0,18.0,56,0.00,,,0.00,471.0,meteohub,2013-03-13 21:20:00,
2013-03-13 17:25:00,31.6,17.8,30.17,WNW,298,5.0,18.0,56,0.00,,,0.00,420.0,meteohub,2013-03-13 21:25:00,
2013-03-13 17:31:00,31.5,17.2,30.17,WNW,299,5.0,15.0,55,0.00,,,0.00,408.0,meteohub,2013-03-13 21:31:00,
2013-03-13 17:36:00,31.1,16.9,30.17,WNW,282,7.0,15.0,55,0.00,,,0.00,383.0,meteohub,2013-03-13 21:36:00,
2013-03-13 17:41:00,30.7,16.5,30.17,WNW,294,11.0,17.0,55,0.00,,,0.00,366.0,meteohub,2013-03-13 21:41:00,
2013-03-13 17:46:00,30.9,17.1,30.17,WNW,290,7.0,17.0,56,0.00,,,0.00,348.0,meteohub,2013-03-13 21:46:00,
2013-03-13 17:51:00,30.6,16.3,30.17,WNW,294,13.0,18.0,55,0.00,,,0.00,330.0,meteohub,2013-03-13 21:51:00,
2013-03-13 17:56:00,30.4,16.2,30.17,NW,325,11.0,18.0,55,0.00,,,0.00,316.0,meteohub,2013-03-13 21:56:00,
2013-03-13 18:01:00,30.4,16.2,30.17,West,275,6.0,20.0,55,0.00,,,0.00,302.0,meteohub,2013-03-13 22:01:00,
2013-03-13 18:06:00,30.0,16.2,30.18,WNW,294,8.0,20.0,56,0.00,,,0.00,287.0,meteohub,2013-03-13 22:06:00,
2013-03-13 18:11:00,30.6,16.7,30.18,WNW,298,4.0,20.0,56,0.00,,,0.00,274.0,meteohub,2013-03-13 22:11:00,
2013-03-13 18:17:00,30.4,16.2,30.18,SW,233,3.0,19.0,55,0.01,,,0.00,251.0,meteohub,2013-03-13 22:17:00,
2013-03-13 18:22:00,30.2,15.6,30.18,WNW,291,8.0,23.0,54,0.01,,,0.01,144.0,meteohub,2013-03-13 22:22:00,
2013-03-13 18:27:00,29.8,15.3,30.19,WNW,302,5.0,23.0,54,0.01,,,0.01,207.0,meteohub,2013-03-13 22:27:00,
2013-03-13 18:32:00,29.8,15.6,30.19,WNW,294,12.0,23.0,55,0.01,,,0.01,179.0,meteohub,2013-03-13 22:32:00,
2013-03-13 18:37:00,29.7,15.4,30.19,WNW,291,6.0,23.0,55,0.01,,,0.01,169.0,meteohub,2013-03-13 22:37:00,
2013-03-13 18:42:00,29.7,15.4,30.19,West,272,6.0,21.0,55,0.01,,,0.01,149.0,meteohub,2013-03-13 22:42:00,
2013-03-13 18:48:00,29.5,15.3,30.19,NNW,327,19.0,21.0,55,0.01,,,0.01,135.0,meteohub,2013-03-13 22:48:00,
2013-03-13 18:52:00,29.5,15.8,30.20,West,281,8.0,22.0,56,0.01,,,0.01,114.0,meteohub,2013-03-13 22:52:00,
2013-03-13 18:58:00,29.3,14.7,30.19,WSW,248,3.0,22.0,54,0.01,,,0.01,98.0,meteohub,2013-03-13 22:58:00,
2013-03-13 19:02:00,29.1,14.5,30.19,WNW,285,9.0,22.0,54,0.01,,,0.01,84.0,meteohub,2013-03-13 23:02:00,
2013-03-13 19:08:00,28.9,14.0,30.20,NW,313,7.0,22.0,53,0.01,,,0.01,69.0,meteohub,2013-03-13 23:08:00,
2013-03-13 19:12:00,28.8,13.3,30.20,WNW,293,15.0,20.0,52,0.01,,,0.01,53.0,meteohub,2013-03-13 23:12:00,
2013-03-13 19:17:00,28.6,13.1,30.20,West,275,11.0,20.0,52,0.00,,,0.01,39.0,meteohub,2013-03-13 23:17:00,
2013-03-13 19:23:00,28.6,13.1,30.21,WNW,285,5.0,20.0,52,0.00,,,0.01,26.0,meteohub,2013-03-13 23:23:00,
2013-03-13 19:28:00,28.2,12.9,30.22,NW,317,7.0,20.0,52,0.00,,,0.01,18.0,meteohub,2013-03-13 23:28:00,
2013-03-13 19:33:00,28.0,12.7,30.21,West,275,7.0,20.0,52,0.00,,,0.01,11.0,meteohub,2013-03-13 23:33:00,
2013-03-13 19:38:00,27.9,12.6,30.21,NW,304,13.0,20.0,52,0.00,,,0.01,7.0,meteohub,2013-03-13 23:38:00,
2013-03-13 19:43:00,27.9,12.6,30.22,NW,317,9.0,20.0,52,0.00,,,0.01,5.0,meteohub,2013-03-13 23:43:00,
2013-03-13 19:48:00,27.7,12.7,30.22,NNW,330,19.0,20.0,53,0.00,,,0.01,0.0,meteohub,2013-03-13 23:48:00,
2013-03-13 19:53:00,27.5,12.6,30.22,NW,306,7.0,19.0,53,0.00,,,0.01,0.0,meteohub,2013-03-13 23:53:00,
2013-03-13 19:58:00,27.3,12.4,30.22,West,281,5.0,19.0,53,0.00,,,0.01,0.0,meteohub,2013-03-13 23:58:00,
2013-03-13 20:03:00,27.1,12.2,30.22,NW,311,5.0,19.0,53,0.00,,,0.01,0.0,meteohub,2013-03-14 00:03:00,
2013-03-13 20:08:00,27.1,12.7,30.22,NW,318,12.0,19.0,54,0.00,,,0.01,0.0,meteohub,2013-03-14 00:08:00,
2013-03-13 20:13:00,27.1,12.2,30.22,NW,325,5.0,14.0,53,0.00,,,0.01,0.0,meteohub,2013-03-14 00:13:00,
2013-03-13 20:18:00,27.0,12.6,30.22,WNW,302,2.0,15.0,54,0.00,,,0.01,0.0,meteohub,2013-03-14 00:18:00,
2013-03-13 20:23:00,27.0,12.6,30.22,NW,307,7.0,15.0,54,0.00,,,0.01,0.0,meteohub,2013-03-14 00:23:00,
2013-03-13 20:28:00,27.0,12.6,30.23,NNW,336,10.0,15.0,54,0.00,,,0.01,0.0,meteohub,2013-03-14 00:28:00,
2013-03-13 20:33:00,26.8,12.4,30.23,WNW,303,4.0,12.0,54,0.00,,,0.01,0.0,meteohub,2013-03-14 00:33:00,
2013-03-13 20:38:00,26.6,12.2,30.23,WNW,300,8.0,12.0,54,0.00,,,0.01,0.0,meteohub,2013-03-14 00:38:00,
2013-03-13 20:43:00,26.4,12.4,30.23,NW,304,4.0,12.0,55,0.00,,,0.01,0.0,meteohub,2013-03-14 00:43:00,
2013-03-13 20:48:00,26.4,12.4,30.23,WNW,286,5.0,12.0,55,0.00,,,0.01,0.0,meteohub,2013-03-14 00:48:00,
2013-03-13 20:53:00,26.2,12.7,30.23,NW,306,2.0,11.0,56,0.00,,,0.01,0.0,meteohub,2013-03-14 00:53:00,
2013-03-13 20:58:00,26.2,12.7,30.23,WNW,286,1.0,11.0,56,0.00,,,0.01,0.0,meteohub,2013-03-14 00:58:00,
2013-03-13 21:03:00,26.2,12.7,30.23,WNW,292,1.0,9.0,56,0.00,,,0.01,0.0,meteohub,2013-03-14 01:03:00,
2013-03-13 21:09:00,26.1,12.6,30.23,WNW,300,2.0,9.0,56,0.00,,,0.01,0.0,meteohub,2013-03-14 01:09:00,
2013-03-13 21:13:00,26.1,12.6,30.23,WNW,295,2.0,9.0,56,0.00,,,0.01,0.0,meteohub,2013-03-14 01:13:00,
2013-03-13 21:19:00,25.9,12.4,30.23,WNW,295,4.0,6.0,56,0.00,,,0.01,0.0,meteohub,2013-03-14 01:19:00,
2013-03-13 21:24:00,25.9,12.4,30.24,WNW,296,0.0,7.0,56,0.00,,,0.01,0.0,meteohub,2013-03-14 01:24:00,
2013-03-13 21:29:00,25.9,12.7,30.24,WNW,295,2.0,7.0,57,0.00,,,0.01,0.0,meteohub,2013-03-14 01:29:00,
2013-03-13 21:34:00,25.7,12.6,30.23,WNW,296,0.0,7.0,57,0.00,,,0.01,0.0,meteohub,2013-03-14 01:34:00,
2013-03-13 21:39:00,25.7,12.6,30.23,WNW,295,0.0,7.0,57,0.00,,,0.01,0.0,meteohub,2013-03-14 01:39:00,
2013-03-13 21:44:00,25.5,12.4,30.24,WNW,294,0.0,7.0,57,0.00,,,0.01,0.0,meteohub,2013-03-14 01:44:00,
2013-03-13 21:49:00,25.5,12.4,30.24,WNW,292,2.0,7.0,57,0.00,,,0.01,0.0,meteohub,2013-03-14 01:49:00,
2013-03-13 21:54:00,25.3,12.2,30.24,WNW,291,4.0,7.0,57,0.00,,,0.01,0.0,meteohub,2013-03-14 01:54:00,
2013-03-13 22:00:00,25.3,12.6,30.24,WNW,289,1.0,7.0,58,0.00,,,0.01,0.0,meteohub,2013-03-14 02:00:00,
2013-03-13 22:05:00,25.2,12.4,30.24,WNW,288,2.0,7.0,58,0.00,,,0.01,0.0,meteohub,2013-03-14 02:05:00,
2013-03-13 22:10:00,25.2,12.4,30.24,WNW,288,1.0,7.0,58,0.00,,,0.01,0.0,meteohub,2013-03-14 02:10:00,
2013-03-13 22:15:00,25.2,12.9,30.24,WNW,288,0.0,7.0,59,0.00,,,0.01,0.0,meteohub,2013-03-14 02:15:00,
2013-03-13 22:20:00,25.0,12.7,30.24,WNW,288,0.0,7.0,59,0.00,,,0.01,0.0,meteohub,2013-03-14 02:20:00,
2013-03-13 22:25:00,25.0,12.7,30.25,WNW,287,0.0,5.0,59,0.00,,,0.01,0.0,meteohub,2013-03-14 02:25:00,
2013-03-13 22:30:00,25.0,12.7,30.25,WNW,287,0.0,4.0,59,0.00,,,0.01,0.0,meteohub,2013-03-14 02:30:00,
2013-03-13 22:35:00,24.8,12.6,30.25,WNW,288,0.0,4.0,59,0.00,,,0.01,0.0,meteohub,2013-03-14 02:35:00,
2013-03-13 22:40:00,24.6,12.7,30.25,WNW,288,0.0,4.0,60,0.00,,,0.01,0.0,meteohub,2013-03-14 02:40:00,
2013-03-13 22:45:00,24.6,12.7,30.25,WNW,288,0.0,6.0,60,0.00,,,0.01,0.0,meteohub,2013-03-14 02:45:00,
2013-03-13 22:50:00,24.6,13.1,30.25,WNW,288,0.0,6.0,61,0.00,,,0.01,0.0,meteohub,2013-03-14 02:50:00,
2013-03-13 22:55:00,24.4,12.9,30.24,WNW,288,0.0,6.0,61,0.00,,,0.01,0.0,meteohub,2013-03-14 02:55:00,
2013-03-13 23:00:00,24.4,13.3,30.24,WNW,288,1.0,4.0,62,0.00,,,0.01,0.0,meteohub,2013-03-14 03:00:00,
2013-03-13 23:05:00,24.3,13.5,30.24,WNW,288,0.0,4.0,63,0.00,,,0.01,0.0,meteohub,2013-03-14 03:05:00,
2013-03-13 23:10:00,24.3,13.5,30.24,WNW,288,0.0,4.0,63,0.00,,,0.01,0.0,meteohub,2013-03-14 03:10:00,
2013-03-13 23:15:00,24.3,13.8,30.24,WNW,288,1.0,4.0,64,0.00,,,0.01,0.0,meteohub,2013-03-14 03:15:00,
2013-03-13 23:20:00,24.3,13.8,30.24,WNW,288,4.0,5.0,64,0.00,,,0.01,0.0,meteohub,2013-03-14 03:20:00,
2013-03-13 23:26:00,24.3,13.8,30.24,West,280,0.0,5.0,64,0.00,,,0.01,0.0,meteohub,2013-03-14 03:26:00,
2013-03-13 23:31:00,24.3,13.8,30.24,West,280,0.0,6.0,64,0.00,,,0.01,0.0,meteohub,2013-03-14 03:31:00,
2013-03-13 23:36:00,24.1,14.0,30.24,West,280,0.0,6.0,65,0.00,,,0.01,0.0,meteohub,2013-03-14 03:36:00,
2013-03-13 23:41:00,24.1,14.0,30.24,West,280,0.0,2.0,65,0.00,,,0.01,0.0,meteohub,2013-03-14 03:41:00,
2013-03-13 23:46:00,23.9,14.2,30.24,West,280,0.0,2.0,66,0.00,,,0.01,0.0,meteohub,2013-03-14 03:46:00,
2013-03-13 23:51:00,23.9,14.2,30.24,West,280,0.0,2.0,66,0.00,,,0.01,0.0,meteohub,2013-03-14 03:51:00,
2013-03-13 23:56:00,23.9,14.2,30.24,West,280,0.0,2.0,66,0.00,,,0.01,0.0,meteohub,2013-03-14 03:56:00,